createdAt,value
2023-03-19T00:02:23.251Z,87.08
2023-03-19T00:04:49.705Z,86.87
2023-03-19T00:07:16.284Z,87.02
2023-03-19T00:09:43.810Z,86.94
2023-03-19T00:12:11.905Z,87.27
2023-03-19T00:14:38.423Z,87.30
2023-03-19T00:17:04.831Z,87.12
2023-03-19T00:19:31.133Z,86.66
2023-03-19T00:21:58.523Z,86.37
2023-03-19T00:24:24.854Z,86.20
2023-03-19T00:26:51.248Z,86.29
2023-03-19T00:29:17.583Z,86.08
2023-03-19T00:31:43.945Z,85.61
2023-03-19T00:34:10.443Z,84.78
2023-03-19T00:36:37.354Z,84.58
2023-03-19T00:39:04.262Z,84.30
2023-03-19T00:41:31.106Z,84.07
2023-03-19T00:43:58.201Z,84.15
2023-03-19T00:46:25.441Z,82.71
2023-03-19T00:48:55.243Z,82.42
2023-03-19T00:51:23.329Z,82.24
2023-03-19T00:53:50.879Z,82.37
2023-03-19T00:56:18.237Z,82.33
2023-03-19T00:58:45.913Z,82.61
2023-03-19T01:01:15.601Z,82.90
2023-03-19T01:03:43.778Z,83.52
2023-03-19T01:06:10.285Z,83.45
2023-03-19T01:08:36.685Z,84.20
2023-03-19T01:11:08.109Z,84.13
2023-03-19T01:13:34.641Z,84.75
2023-03-19T01:16:01.079Z,85.15
2023-03-19T01:18:27.407Z,85.62
2023-03-19T01:20:53.822Z,85.49
2023-03-19T01:23:20.157Z,85.87
2023-03-19T01:25:47.526Z,85.53
2023-03-19T01:28:13.847Z,85.93
2023-03-19T01:30:41.042Z,85.42
2023-03-19T01:33:10.584Z,85.90
2023-03-19T01:35:50.248Z,85.27
2023-03-19T01:38:18.157Z,85.36
2023-03-19T01:40:47.326Z,84.90
2023-03-19T01:43:21.428Z,84.95
2023-03-19T01:45:55.715Z,84.93
2023-03-19T01:48:47.116Z,85.20
2023-03-19T01:51:19.203Z,85.56
2023-03-19T01:53:52.973Z,85.54
2023-03-19T01:56:33.555Z,85.34
2023-03-19T01:59:12.588Z,85.98
2023-03-19T02:02:07.910Z,86.40
2023-03-19T02:04:37.768Z,86.46
2023-03-19T02:07:06.256Z,86.92
2023-03-19T02:09:32.749Z,87.19
2023-03-19T02:12:01.804Z,87.25
2023-03-19T02:14:28.945Z,87.63
2023-03-19T02:16:56.028Z,87.51
2023-03-19T02:19:32.044Z,88.22
2023-03-19T02:22:00.198Z,87.99
2023-03-19T02:24:41.474Z,88.17
2023-03-19T02:27:12.920Z,88.43
2023-03-19T02:29:42.816Z,88.42
2023-03-19T02:32:09.376Z,88.46
2023-03-19T02:34:39.068Z,88.66
2023-03-19T02:37:14.557Z,88.68
2023-03-19T02:40:04.349Z,89.13
2023-03-19T02:42:31.195Z,89.10
2023-03-19T02:44:57.944Z,89.21
2023-03-19T02:47:26.114Z,89.80
2023-03-19T02:49:52.859Z,89.94
2023-03-19T02:52:19.724Z,90.22
2023-03-19T02:54:46.577Z,89.91
2023-03-19T02:57:13.410Z,90.23
2023-03-19T02:59:39.983Z,89.81
2023-03-19T03:02:06.881Z,90.33
2023-03-19T03:04:34.778Z,90.19
2023-03-19T03:07:01.671Z,90.95
2023-03-19T03:09:28.856Z,90.93
2023-03-19T03:11:55.278Z,91.49
2023-03-19T03:14:21.962Z,91.71
2023-03-19T03:16:48.740Z,91.48
2023-03-19T03:19:16.084Z,91.69
2023-03-19T03:21:42.717Z,91.38
2023-03-19T03:24:09.574Z,92.16
2023-03-19T03:26:38.659Z,92.20
2023-03-19T03:29:06.082Z,92.22
2023-03-19T03:31:33.204Z,92.40
2023-03-19T03:33:59.620Z,91.98
2023-03-19T03:36:27.317Z,92.41
2023-03-19T03:38:55.195Z,91.86
2023-03-19T03:41:21.975Z,91.88
2023-03-19T03:43:48.318Z,91.33
2023-03-19T03:46:14.849Z,91.74
2023-03-19T03:48:41.233Z,91.96
2023-03-19T03:51:07.989Z,91.44
2023-03-19T03:53:34.708Z,91.33
2023-03-19T03:56:02.656Z,91.38
2023-03-19T03:58:30.433Z,91.48
2023-03-19T04:00:56.821Z,91.41
2023-03-19T04:03:24.516Z,91.03
2023-03-19T04:05:51.752Z,90.99
2023-03-19T04:08:19.575Z,90.75
2023-03-19T04:10:45.975Z,91.15
2023-03-19T04:13:12.847Z,90.58
2023-03-19T04:15:41.860Z,90.64
2023-03-19T04:18:08.912Z,90.53
2023-03-19T04:20:35.843Z,90.35
2023-03-19T04:23:03.296Z,90.13
2023-03-19T04:25:29.886Z,89.56
2023-03-19T04:27:57.901Z,89.35
2023-03-19T04:30:27.452Z,88.96
2023-03-19T04:32:53.840Z,89.32
2023-03-19T04:35:21.378Z,88.97
2023-03-19T04:37:48.696Z,89.12
2023-03-19T04:40:16.967Z,88.36
2023-03-19T04:42:44.579Z,88.67
2023-03-19T04:45:18.619Z,88.72
2023-03-19T04:47:45.328Z,88.07
2023-03-19T04:50:12.827Z,88.13
2023-03-19T04:52:41.607Z,87.97
2023-03-19T04:55:08.529Z,87.94
2023-03-19T04:57:46.952Z,87.30
2023-03-19T05:00:14.510Z,87.34
2023-03-19T05:02:42.935Z,86.63
2023-03-19T05:05:13.511Z,86.14
2023-03-19T05:07:41.316Z,85.68
2023-03-19T05:10:10.298Z,85.06
2023-03-19T05:12:36.741Z,84.35
2023-03-19T05:15:05.192Z,84.16
2023-03-19T05:17:51.019Z,83.41
2023-03-19T05:20:21.557Z,83.20
2023-03-19T05:22:54.128Z,82.64
2023-03-19T05:25:24.317Z,82.53
2023-03-19T05:27:51.183Z,82.70
2023-03-19T05:30:20.539Z,82.78
2023-03-19T05:32:57.610Z,82.93
2023-03-19T05:35:32.123Z,83.56
2023-03-19T05:37:59.635Z,84.04
2023-03-19T05:40:26.216Z,84.05
2023-03-19T05:42:53.868Z,84.11
2023-03-19T05:45:23.220Z,84.67
2023-03-19T05:47:53.657Z,85.07
2023-03-19T05:50:20.385Z,85.74
2023-03-19T05:53:05.351Z,85.76
2023-03-19T05:55:34.373Z,85.46
2023-03-19T05:58:05.714Z,85.00
2023-03-19T06:00:32.594Z,85.07
2023-03-19T06:02:59.196Z,85.77
2023-03-19T06:05:43.501Z,86.06
2023-03-19T06:08:25.412Z,86.34
2023-03-19T06:11:07.882Z,86.28
2023-03-19T06:13:35.375Z,87.02
2023-03-19T06:16:06.805Z,87.57
2023-03-19T06:18:45.586Z,87.90
2023-03-19T06:21:13.831Z,88.01
2023-03-19T06:23:40.552Z,87.75
2023-03-19T06:26:07.990Z,88.15
2023-03-19T06:28:42.469Z,88.85
2023-03-19T06:31:09.273Z,89.04
2023-03-19T06:33:56.334Z,89.80
2023-03-19T06:36:26.946Z,89.89
2023-03-19T06:38:53.332Z,90.02
2023-03-19T06:41:19.709Z,90.32
2023-03-19T06:43:47.468Z,90.27
2023-03-19T06:46:13.841Z,90.63
2023-03-19T06:48:40.198Z,90.61
2023-03-19T06:51:06.776Z,90.99
2023-03-19T06:53:33.585Z,90.37
2023-03-19T06:56:00.854Z,90.58
2023-03-19T06:58:27.280Z,90.65
2023-03-19T07:00:53.633Z,91.01
2023-03-19T07:03:20.032Z,90.91
2023-03-19T07:05:49.841Z,91.36
2023-03-19T07:08:16.213Z,90.93
2023-03-19T07:10:42.537Z,90.94
2023-03-19T07:13:08.910Z,90.78
2023-03-19T07:15:36.503Z,91.21
2023-03-19T07:18:02.921Z,90.99
2023-03-19T07:20:29.311Z,91.55
2023-03-19T07:22:55.724Z,91.50
2023-03-19T07:25:22.154Z,91.79
2023-03-19T07:27:48.978Z,91.65
2023-03-19T07:30:16.129Z,91.73
2023-03-19T07:32:43.004Z,91.42
2023-03-19T07:35:10.416Z,91.71
2023-03-19T07:37:37.036Z,91.55
2023-03-19T07:40:03.660Z,91.48
2023-03-19T07:42:29.995Z,91.45
2023-03-19T07:44:56.467Z,91.38
2023-03-19T07:47:28.833Z,91.38
2023-03-19T07:49:56.543Z,91.29
2023-03-19T07:52:23.528Z,91.28
2023-03-19T07:54:50.472Z,90.92
2023-03-19T07:57:16.838Z,90.93
2023-03-19T07:59:43.191Z,90.97
2023-03-19T08:02:11.676Z,90.83
2023-03-19T08:04:38.373Z,90.56
2023-03-19T08:07:04.869Z,90.04
2023-03-19T08:09:31.288Z,90.45
2023-03-19T08:11:57.637Z,89.51
2023-03-19T08:14:24.039Z,89.77
2023-03-19T08:16:50.487Z,89.76
2023-03-19T08:19:17.056Z,89.91
2023-03-19T08:21:43.395Z,90.06
2023-03-19T08:24:09.710Z,89.71
2023-03-19T08:26:36.209Z,89.56
2023-03-19T08:29:04.053Z,89.61
2023-03-19T08:31:30.634Z,89.65
2023-03-19T08:33:59.930Z,88.69
2023-03-19T08:36:27.069Z,88.68
2023-03-19T08:38:54.768Z,88.70
2023-03-19T08:41:22.025Z,88.06
2023-03-19T08:43:48.665Z,88.31
2023-03-19T08:46:16.245Z,88.43
2023-03-19T08:48:42.900Z,87.29
2023-03-19T08:51:10.289Z,87.71
2023-03-19T08:53:38.546Z,87.80
2023-03-19T08:56:07.570Z,86.71
2023-03-19T08:58:34.759Z,86.90
2023-03-19T09:01:12.611Z,86.91
2023-03-19T09:03:40.065Z,85.75
2023-03-19T09:06:09.314Z,85.93
2023-03-19T09:08:37.035Z,85.22
2023-03-19T09:11:04.520Z,85.52
2023-03-19T09:13:31.101Z,84.36
2023-03-19T09:15:57.561Z,84.41
2023-03-19T09:18:25.373Z,84.38
2023-03-19T09:20:52.846Z,84.11
2023-03-19T09:23:20.062Z,84.11
2023-03-19T09:25:46.690Z,83.91
2023-03-19T09:28:13.041Z,83.77
2023-03-19T09:30:39.741Z,81.97
2023-03-19T09:33:08.029Z,82.28
2023-03-19T09:35:34.731Z,81.53
2023-03-19T09:38:01.990Z,82.23
2023-03-19T09:40:38.802Z,81.71
2023-03-19T09:43:31.715Z,79.95
2023-03-19T09:45:59.536Z,77.97
2023-03-19T09:48:40.096Z,78.12
2023-03-19T09:51:08.978Z,78.13
2023-03-19T09:53:58.377Z,78.98
2023-03-19T09:56:25.658Z,77.62
2023-03-19T09:58:52.339Z,77.66
2023-03-19T10:01:28.445Z,77.13
2023-03-19T10:04:29.321Z,77.68
2023-03-19T10:07:08.799Z,78.10
2023-03-19T10:09:54.729Z,77.82
2023-03-19T10:12:44.725Z,77.44
2023-03-19T10:15:27.656Z,76.83
2023-03-19T10:17:58.240Z,77.14
2023-03-19T10:20:30.740Z,76.69
2023-03-19T10:23:17.406Z,76.04
2023-03-19T10:25:44.693Z,76.00
2023-03-19T10:28:18.708Z,75.75
2023-03-19T10:30:57.738Z,75.87
2023-03-19T10:33:31.341Z,75.48
2023-03-19T10:36:03.978Z,76.74
2023-03-19T10:38:33.378Z,76.51
2023-03-19T10:41:16.259Z,75.35
2023-03-19T10:43:47.112Z,75.67
2023-03-19T10:46:15.582Z,74.74
2023-03-19T10:48:46.223Z,74.54
2023-03-19T10:51:21.163Z,74.36
2023-03-19T10:53:47.564Z,75.51
2023-03-19T10:56:20.302Z,74.47
2023-03-19T10:59:21.683Z,74.68
2023-03-19T11:01:48.221Z,75.22
2023-03-19T11:04:23.692Z,75.03
2023-03-19T11:06:53.101Z,74.74
2023-03-19T11:09:42.272Z,75.17
2023-03-19T11:12:41.470Z,75.07
2023-03-19T11:15:21.993Z,75.19
2023-03-19T11:18:06.766Z,75.08
2023-03-19T11:20:36.248Z,76.05
2023-03-19T11:23:09.167Z,77.21
2023-03-19T11:25:40.024Z,77.50
2023-03-19T11:28:15.061Z,78.26
2023-03-19T11:30:46.434Z,78.33
2023-03-19T11:33:38.246Z,79.44
2023-03-19T11:36:27.394Z,79.98
2023-03-19T11:39:22.903Z,81.21
2023-03-19T11:42:07.766Z,82.18
2023-03-19T11:45:08.852Z,82.29
2023-03-19T11:47:51.154Z,82.63
2023-03-19T11:50:30.417Z,83.51
2023-03-19T11:53:22.463Z,83.40
2023-03-19T11:56:02.503Z,84.44
2023-03-19T11:58:50.583Z,84.17
2023-03-19T12:01:43.122Z,84.61
2023-03-19T12:04:27.993Z,85.24
2023-03-19T12:07:13.972Z,85.08
2023-03-19T12:09:49.929Z,86.23
2023-03-19T12:12:30.446Z,85.20
2023-03-19T12:15:12.171Z,86.84
2023-03-19T12:18:15.747Z,87.83
2023-03-19T12:21:00.496Z,89.09
2023-03-19T12:23:51.918Z,90.09
2023-03-19T12:26:47.967Z,89.76
2023-03-19T12:29:24.327Z,90.66
2023-03-19T12:31:59.579Z,88.25
2023-03-19T12:34:34.216Z,86.82
2023-03-19T12:37:12.955Z,88.21
2023-03-19T12:39:48.245Z,86.48
2023-03-19T12:42:18.666Z,84.75
2023-03-19T12:44:51.056Z,84.75
2023-03-19T12:47:20.384Z,84.82
2023-03-19T12:49:53.481Z,84.36
2023-03-19T12:52:38.053Z,83.10
2023-03-19T12:55:16.373Z,80.69
2023-03-19T12:57:58.041Z,81.67
2023-03-19T13:00:24.342Z,79.33
2023-03-19T13:03:10.850Z,78.80
2023-03-19T13:05:52.008Z,79.66
2023-03-19T13:08:42.293Z,79.25
2023-03-19T13:11:43.835Z,79.56
2023-03-19T13:14:31.995Z,78.74
2023-03-19T13:17:08.003Z,77.09
2023-03-19T13:19:45.880Z,78.18
2023-03-19T13:22:25.661Z,77.27
2023-03-19T13:24:54.105Z,76.68
2023-03-19T13:27:30.660Z,75.66
2023-03-19T13:30:10.497Z,76.71
2023-03-19T13:32:41.275Z,76.25
2023-03-19T13:35:27.620Z,75.22
2023-03-19T13:38:15.376Z,73.82
2023-03-19T13:40:55.789Z,73.66
2023-03-19T13:43:27.958Z,71.63
2023-03-19T13:46:13.390Z,74.63
2023-03-19T13:48:45.937Z,73.96
2023-03-19T13:51:12.233Z,73.83
2023-03-19T13:53:53.172Z,76.08
2023-03-19T13:56:29.644Z,76.91
2023-03-19T13:59:15.121Z,74.27
2023-03-19T14:01:44.625Z,73.00
2023-03-19T14:04:23.390Z,73.70
2023-03-19T14:06:56.540Z,71.83
2023-03-19T14:09:36.877Z,72.75
2023-03-19T14:12:15.707Z,69.31
2023-03-19T14:14:51.640Z,65.74
2023-03-19T14:17:28.338Z,65.43
2023-03-19T14:19:54.915Z,63.90
2023-03-19T14:22:40.239Z,65.12
2023-03-19T14:25:22.400Z,65.84
2023-03-19T14:27:50.877Z,65.50
2023-03-19T14:30:40.540Z,65.45
2023-03-19T14:33:18.058Z,64.45
2023-03-19T14:35:46.766Z,64.96
2023-03-19T14:38:24.127Z,67.16
2023-03-19T14:40:51.678Z,65.30
2023-03-19T14:43:47.533Z,65.55
2023-03-19T14:46:25.353Z,65.12
2023-03-19T14:49:20.460Z,65.15
2023-03-19T14:52:03.168Z,66.52
2023-03-19T14:54:44.725Z,67.78
2023-03-19T14:57:19.332Z,68.44
2023-03-19T14:59:45.828Z,69.27
2023-03-19T15:02:34.888Z,68.08
2023-03-19T15:05:06.060Z,69.99
2023-03-19T15:07:38.398Z,69.38
2023-03-19T15:10:07.879Z,69.11
2023-03-19T15:12:57.870Z,69.48
2023-03-19T15:15:44.232Z,69.43
2023-03-19T15:18:13.751Z,69.94
2023-03-19T15:20:45.583Z,70.05
2023-03-19T15:23:26.209Z,71.23
2023-03-19T15:26:00.991Z,71.07
2023-03-19T15:28:37.917Z,70.98
2023-03-19T15:31:26.400Z,70.98
2023-03-19T15:33:52.702Z,71.29
2023-03-19T15:36:29.870Z,71.04
2023-03-19T15:39:10.256Z,70.78
2023-03-19T15:41:41.680Z,71.22
2023-03-19T15:44:15.481Z,71.53
2023-03-19T15:46:43.061Z,71.65
2023-03-19T15:49:15.900Z,71.37
2023-03-19T15:51:44.733Z,71.45
2023-03-19T15:54:11.506Z,71.71
2023-03-19T15:56:38.958Z,71.26
2023-03-19T15:59:05.663Z,70.69
2023-03-19T16:01:34.115Z,68.17
2023-03-19T16:04:13.982Z,68.66
2023-03-19T16:06:40.760Z,68.64
2023-03-19T16:09:32.955Z,68.73
2023-03-19T16:12:00.836Z,69.46
2023-03-19T16:14:35.288Z,69.25
2023-03-19T16:17:13.312Z,68.96
2023-03-19T16:19:55.927Z,69.07
2023-03-19T16:22:28.908Z,69.48
2023-03-19T16:24:55.944Z,70.28
2023-03-19T16:27:30.772Z,70.74
2023-03-19T16:29:59.404Z,70.74
2023-03-19T16:32:28.231Z,71.04
2023-03-19T16:34:56.947Z,71.38
2023-03-19T16:37:34.497Z,71.57
2023-03-19T16:40:21.248Z,71.63
2023-03-19T16:42:52.707Z,71.57
2023-03-19T16:45:27.217Z,71.98
2023-03-19T16:47:55.567Z,72.01
2023-03-19T16:50:26.025Z,72.49
2023-03-19T16:52:52.348Z,72.97
2023-03-19T16:55:26.913Z,72.95
2023-03-19T16:58:16.040Z,73.55
2023-03-19T17:00:43.636Z,73.37
2023-03-19T17:03:15.204Z,73.63
2023-03-19T17:05:42.390Z,73.96
2023-03-19T17:08:09.268Z,74.15
2023-03-19T17:10:37.766Z,74.97
2023-03-19T17:13:04.699Z,75.30
2023-03-19T17:15:42.202Z,75.57
2023-03-19T17:18:18.992Z,75.71
2023-03-19T17:20:52.136Z,76.19
2023-03-19T17:23:18.941Z,76.34
2023-03-19T17:25:45.674Z,76.75
2023-03-19T17:28:12.164Z,76.73
2023-03-19T17:30:39.182Z,76.67
2023-03-19T17:33:05.758Z,76.43
2023-03-19T17:35:33.859Z,76.36
2023-03-19T17:38:00.637Z,75.40
2023-03-19T17:40:27.969Z,75.29
2023-03-19T17:42:55.780Z,75.42
2023-03-19T17:45:28.616Z,74.58
2023-03-19T17:47:56.919Z,74.08
2023-03-19T17:50:26.159Z,74.33
2023-03-19T17:52:52.611Z,74.78
2023-03-19T17:55:21.821Z,74.03
2023-03-19T17:57:49.203Z,73.40
2023-03-19T18:00:16.489Z,73.70
2023-03-19T18:02:43.985Z,73.94
2023-03-19T18:05:20.629Z,73.64
2023-03-19T18:07:48.794Z,72.75
2023-03-19T18:10:16.345Z,72.14
2023-03-19T18:12:43.653Z,71.66
2023-03-19T18:15:11.141Z,71.82
2023-03-19T18:17:38.048Z,72.34
2023-03-19T18:20:05.950Z,72.14
2023-03-19T18:22:32.352Z,72.10
2023-03-19T18:24:58.665Z,72.35
2023-03-19T18:27:25.106Z,72.06
2023-03-19T18:29:51.527Z,72.05
2023-03-19T18:32:31.548Z,72.86
2023-03-19T18:34:58.241Z,72.46
2023-03-19T18:37:24.677Z,72.69
2023-03-19T18:39:51.023Z,73.45
2023-03-19T18:42:17.548Z,73.10
2023-03-19T18:44:44.888Z,73.96
2023-03-19T18:47:15.662Z,73.70
2023-03-19T18:49:42.906Z,73.34
2023-03-19T18:52:13.050Z,73.05
2023-03-19T18:54:39.415Z,73.46
2023-03-19T18:57:10.710Z,73.98
2023-03-19T18:59:37.127Z,73.57
2023-03-19T19:02:28.761Z,74.05
2023-03-19T19:04:55.170Z,74.33
2023-03-19T19:07:21.582Z,76.23
2023-03-19T19:09:47.887Z,76.26
2023-03-19T19:12:18.389Z,77.06
2023-03-19T19:14:45.425Z,77.79
2023-03-19T19:17:21.264Z,77.81
2023-03-19T19:19:47.601Z,78.30
2023-03-19T19:22:16.317Z,78.96
2023-03-19T19:24:43.849Z,78.36
2023-03-19T19:27:22.965Z,79.04
2023-03-19T19:29:50.114Z,78.85
2023-03-19T19:32:27.511Z,78.78
2023-03-19T19:34:54.248Z,79.05
2023-03-19T19:37:23.004Z,78.91
2023-03-19T19:39:49.851Z,79.71
2023-03-19T19:42:19.492Z,79.97
2023-03-19T19:44:55.186Z,79.29
2023-03-19T19:47:21.692Z,79.98
2023-03-19T19:49:48.012Z,80.10
2023-03-19T19:52:17.083Z,80.19
2023-03-19T19:54:46.491Z,79.09
2023-03-19T19:57:24.845Z,79.63
2023-03-19T19:59:53.035Z,78.07
2023-03-19T20:02:24.566Z,78.29
2023-03-19T20:04:51.149Z,78.46
2023-03-19T20:07:17.943Z,78.52
2023-03-19T20:09:44.391Z,79.02
2023-03-19T20:12:28.020Z,78.76
2023-03-19T20:14:54.470Z,78.31
2023-03-19T20:17:21.252Z,78.41
2023-03-19T20:19:47.993Z,78.48
2023-03-19T20:22:14.424Z,77.85
2023-03-19T20:24:41.485Z,78.72
2023-03-19T20:27:27.806Z,79.09
2023-03-19T20:29:54.266Z,78.78
2023-03-19T20:32:27.523Z,79.52
2023-03-19T20:34:53.934Z,79.25
2023-03-19T20:37:20.281Z,79.65
2023-03-19T20:39:46.574Z,79.16
2023-03-19T20:42:16.253Z,79.14
2023-03-19T20:44:43.939Z,79.40
2023-03-19T20:47:19.286Z,79.98
2023-03-19T20:49:46.143Z,79.27
2023-03-19T20:52:12.521Z,80.29
2023-03-19T20:54:40.908Z,80.38
2023-03-19T20:57:13.740Z,80.70
2023-03-19T21:03:46.970Z,80.64
2023-03-19T21:06:17.872Z,80.94
2023-03-19T21:08:50.719Z,81.59
2023-03-19T21:11:19.794Z,81.22
2023-03-19T21:13:47.922Z,81.89
2023-03-19T21:16:19.497Z,82.10
2023-03-19T21:18:47.044Z,82.06
2023-03-19T21:21:14.460Z,81.93
2023-03-19T21:23:46.953Z,81.78
2023-03-19T21:26:17.379Z,81.93
2023-03-19T21:28:46.271Z,82.30
2023-03-19T21:31:20.393Z,82.67
2023-03-19T21:33:51.508Z,82.88
2023-03-19T21:36:18.245Z,83.28
2023-03-19T21:38:45.231Z,83.38
2023-03-19T21:41:22.320Z,83.01
2023-03-19T21:44:01.183Z,83.36
2023-03-19T21:46:30.246Z,83.39
2023-03-19T21:48:57.859Z,83.06
2023-03-19T21:51:25.985Z,83.35
2023-03-19T21:53:52.430Z,83.65
2023-03-19T21:56:24.029Z,83.64
2023-03-19T21:58:52.554Z,83.80
2023-03-19T22:01:22.087Z,84.04
2023-03-19T22:03:48.560Z,84.17
2023-03-19T22:06:16.894Z,83.82
2023-03-19T22:08:47.923Z,84.06
2023-03-19T22:11:26.628Z,84.32
2023-03-19T22:13:53.529Z,84.52
2023-03-19T22:16:24.787Z,84.57
2023-03-19T22:18:52.480Z,84.76
2023-03-19T22:21:21.441Z,84.32
2023-03-19T22:23:48.146Z,84.65
2023-03-19T22:26:38.594Z,84.83
2023-03-19T22:29:11.524Z,84.74
2023-03-19T22:31:37.939Z,84.62
2023-03-19T22:34:04.876Z,84.34
2023-03-19T22:36:31.176Z,84.46
2023-03-19T22:38:57.713Z,83.97
2023-03-19T22:41:31.769Z,84.20
2023-03-19T22:43:59.875Z,83.77
2023-03-19T22:46:27.539Z,83.67
2023-03-19T22:48:54.859Z,83.88
2023-03-19T22:51:27.072Z,83.85
2023-03-19T22:53:53.977Z,83.98
2023-03-19T22:56:21.743Z,84.47
2023-03-19T22:58:48.608Z,84.94
2023-03-19T23:01:21.128Z,84.28
2023-03-19T23:03:48.825Z,84.47
2023-03-19T23:06:29.367Z,84.82
2023-03-19T23:08:56.946Z,84.98
2023-03-19T23:11:24.144Z,84.64
2023-03-19T23:13:50.525Z,84.54
2023-03-19T23:16:23.289Z,84.72
2023-03-19T23:18:50.416Z,84.13
2023-03-19T23:21:18.547Z,84.17
2023-03-19T23:23:45.269Z,84.16
2023-03-19T23:26:27.483Z,84.13
2023-03-19T23:28:56.329Z,83.69
2023-03-19T23:31:23.001Z,84.38
2023-03-19T23:33:49.416Z,83.81
2023-03-19T23:36:17.059Z,83.84
2023-03-19T23:38:43.679Z,84.14
2023-03-19T23:41:22.213Z,84.45
2023-03-19T23:43:48.646Z,84.20
2023-03-19T23:46:15.716Z,84.37
2023-03-19T23:48:42.350Z,84.96
2023-03-19T23:51:15.992Z,84.04
2023-03-19T23:53:42.995Z,84.20
2023-03-19T23:56:28.004Z,84.84
